Terminal Aerodrome Forecast
Issued by NWS

Home | Current Version | Previous Version | Graphics & Text | Print | Product List | Glossary On
Versions: 1 2 3 4 5 6 7 8 9 10 11 12 13 14
000
FTUS43 KOAX 071125 AAA
TAFCDR
TAF AMD
KCDR 071125Z 0711/0812 31009KT P6SM BKN070
     FM071900 31013KT P6SM BKN130
     FM080400 29009KT P6SM SCT250=

USA.gov is the U.S. government's official web portal to all federal, state and local government web resources and services.